sensor_id;sensor_type;location;lat;lon;timestamp;pressure;altitude;pressure_sealevel;temperature;humidity
63694;BME280;49839;51.798;10.954;2022-08-11T00:02:26;99913.81;;;19.05;nan
63694;BME280;49839;51.798;10.954;2022-08-11T00:04:55;99914.31;;;18.99;nan
63694;BME280;49839;51.798;10.954;2022-08-11T00:07:25;99905.44;;;18.99;nan
63694;BME280;49839;51.798;10.954;2022-08-11T00:09:53;99908.38;;;18.96;nan
63694;BME280;49839;51.798;10.954;2022-08-11T00:12:21;99911.38;;;18.91;nan
63694;BME280;49839;51.798;10.954;2022-08-11T00:14:56;99914.28;;;18.88;nan
63694;BME280;49839;51.798;10.954;2022-08-11T00:17:28;99911.84;;;18.85;nan
63694;BME280;49839;51.798;10.954;2022-08-11T00:20:04;99909.03;;;18.75;nan
63694;BME280;49839;51.798;10.954;2022-08-11T00:22:41;99911.72;;;18.75;nan
63694;BME280;49839;51.798;10.954;2022-08-11T00:25:10;99918.88;;;18.75;nan
63694;BME280;49839;51.798;10.954;2022-08-11T00:27:39;99919.34;;;18.69;nan
63694;BME280;49839;51.798;10.954;2022-08-11T00:30:10;99917.78;;;18.53;nan
63694;BME280;49839;51.798;10.954;2022-08-11T00:32:42;99916.66;;;18.45;nan
63694;BME280;49839;51.798;10.954;2022-08-11T00:35:13;99918.81;;;18.39;nan
63694;BME280;49839;51.798;10.954;2022-08-11T00:38:03;99918.41;;;18.33;nan
63694;BME280;49839;51.798;10.954;2022-08-11T00:40:36;99917.28;;;18.24;nan
63694;BME280;49839;51.798;10.954;2022-08-11T00:43:16;99916.66;;;18.21;nan
63694;BME280;49839;51.798;10.954;2022-08-11T00:46:04;99908.75;;;18.19;nan
63694;BME280;49839;51.798;10.954;2022-08-11T00:48:46;99921.13;;;18.20;nan
63694;BME280;49839;51.798;10.954;2022-08-11T00:51:35;99908.88;;;18.18;nan
63694;BME280;49839;51.798;10.954;2022-08-11T00:54:42;99909.72;;;18.18;nan
63694;BME280;49839;51.798;10.954;2022-08-11T00:57:52;99909.72;;;18.18;nan
63694;BME280;49839;51.798;10.954;2022-08-11T01:00:31;99908.75;;;18.19;nan
63694;BME280;49839;51.798;10.954;2022-08-11T01:03:15;99896.41;;;18.18;nan
63694;BME280;49839;51.798;10.954;2022-08-11T01:06:00;99899.78;;;18.20;nan
63694;BME280;49839;51.798;10.954;2022-08-11T01:15:03;99904.47;;;18.29;nan
63694;BME280;49839;51.798;10.954;2022-08-11T01:17:57;99904.66;;;18.26;nan
63694;BME280;49839;51.798;10.954;2022-08-11T01:24:07;99901.41;;;18.23;nan
63694;BME280;49839;51.798;10.954;2022-08-11T01:27:06;99901.28;;;18.24;nan
63694;BME280;49839;51.798;10.954;2022-08-11T01:30:09;99897.97;;;18.21;nan
63694;BME280;49839;51.798;10.954;2022-08-11T01:33:17;99900.44;;;18.24;nan
63694;BME280;49839;51.798;10.954;2022-08-11T01:36:28;99896.78;;;18.25;nan
63694;BME280;49839;51.798;10.954;2022-08-11T01:42:24;99896.84;;;18.12;nan
63694;BME280;49839;51.798;10.954;2022-08-11T01:45:28;99899.00;;;18.07;nan
63694;BME280;49839;51.798;10.954;2022-08-11T01:48:04;99899.00;;;18.07;nan
63694;BME280;49839;51.798;10.954;2022-08-11T01:50:53;99899.09;;;18.05;nan
63694;BME280;49839;51.798;10.954;2022-08-11T01:53:32;99903.91;;;18.00;nan
63694;BME280;49839;51.798;10.954;2022-08-11T01:56:18;99903.06;;;18.00;nan
63694;BME280;49839;51.798;10.954;2022-08-11T01:59:03;99906.06;;;17.95;nan
63694;BME280;49839;51.798;10.954;2022-08-11T02:01:48;99909.69;;;17.94;nan
63694;BME280;49839;51.798;10.954;2022-08-11T02:04:25;99903.63;;;17.92;nan
63694;BME280;49839;51.798;10.954;2022-08-11T02:07:02;99911.75;;;17.91;nan
63694;BME280;49839;51.798;10.954;2022-08-11T02:09:55;99905.53;;;17.90;nan
63694;BME280;49839;51.798;10.954;2022-08-11T02:12:40;99905.78;;;17.87;nan
63694;BME280;49839;51.798;10.954;2022-08-11T02:15:20;99899.81;;;17.83;nan
63694;BME280;49839;51.798;10.954;2022-08-11T02:17:59;99896.53;;;17.80;nan
63694;BME280;49839;51.798;10.954;2022-08-11T02:20:36;99906.66;;;17.75;nan
63694;BME280;49839;51.798;10.954;2022-08-11T02:23:30;99901.63;;;17.70;nan
63694;BME280;49839;51.798;10.954;2022-08-11T02:26:34;99907.19;;;17.67;nan
63694;BME280;49839;51.798;10.954;2022-08-11T02:29:13;99895.16;;;17.62;nan
63694;BME280;49839;51.798;10.954;2022-08-11T02:31:52;99904.31;;;17.57;nan
63694;BME280;49839;51.798;10.954;2022-08-11T02:34:58;99909.75;;;17.56;nan
63694;BME280;49839;51.798;10.954;2022-08-11T02:37:36;99911.44;;;17.57;nan
63694;BME280;49839;51.798;10.954;2022-08-11T02:40:17;99901.75;;;17.56;nan
63694;BME280;49839;51.798;10.954;2022-08-11T02:42:55;99900.28;;;17.52;nan
63694;BME280;49839;51.798;10.954;2022-08-11T02:45:34;99898.69;;;17.49;nan
63694;BME280;49839;51.798;10.954;2022-08-11T02:48:12;99900.50;;;17.49;nan
63694;BME280;49839;51.798;10.954;2022-08-11T02:51:13;99900.94;;;17.43;nan
63694;BME280;49839;51.798;10.954;2022-08-11T02:53:50;99899.09;;;17.43;nan
63694;BME280;49839;51.798;10.954;2022-08-11T02:56:34;99898.38;;;17.41;nan
63694;BME280;49839;51.798;10.954;2022-08-11T02:59:07;99895.47;;;17.44;nan
63694;BME280;49839;51.798;10.954;2022-08-11T03:02:04;99896.69;;;17.40;nan
63694;BME280;49839;51.798;10.954;2022-08-11T03:04:42;99893.47;;;17.35;nan
63694;BME280;49839;51.798;10.954;2022-08-11T03:07:20;99898.06;;;17.33;nan
63694;BME280;49839;51.798;10.954;2022-08-11T03:10:00;99891.91;;;17.32;nan
63694;BME280;49839;51.798;10.954;2022-08-11T03:12:36;99894.56;;;17.32;nan
63694;BME280;49839;51.798;10.954;2022-08-11T03:15:28;99901.78;;;17.30;nan
63694;BME280;49839;51.798;10.954;2022-08-11T03:18:22;99898.50;;;17.27;nan
63694;BME280;49839;51.798;10.954;2022-08-11T03:20:58;99897.72;;;17.25;nan
63694;BME280;49839;51.798;10.954;2022-08-11T03:23:33;99892.53;;;17.23;nan
63694;BME280;49839;51.798;10.954;2022-08-11T03:26:08;99897.97;;;17.22;nan
63694;BME280;49839;51.798;10.954;2022-08-11T03:28:44;99888.34;;;17.19;nan
63694;BME280;49839;51.798;10.954;2022-08-11T03:31:24;99899.00;;;17.19;nan
63694;BME280;49839;51.798;10.954;2022-08-11T03:33:57;99899.00;;;17.19;nan
63694;BME280;49839;51.798;10.954;2022-08-11T03:36:59;99899.25;;;17.16;nan
63694;BME280;49839;51.798;10.954;2022-08-11T03:39:49;99903.06;;;17.12;nan
63694;BME280;49839;51.798;10.954;2022-08-11T03:42:27;99901.25;;;17.13;nan
63694;BME280;49839;51.798;10.954;2022-08-11T03:45:04;99900.63;;;17.09;nan
63694;BME280;49839;51.798;10.954;2022-08-11T03:47:47;99906.06;;;17.08;nan
63694;BME280;49839;51.798;10.954;2022-08-11T03:50:33;99911.69;;;17.03;nan
63694;BME280;49839;51.798;10.954;2022-08-11T03:53:27;99906.38;;;17.03;nan
63694;BME280;49839;51.798;10.954;2022-08-11T03:56:22;99910.97;;;17.01;nan
63694;BME280;49839;51.798;10.954;2022-08-11T03:59:27;99903.81;;;17.01;nan
63694;BME280;49839;51.798;10.954;2022-08-11T04:02:08;99912.25;;;17.08;nan
63694;BME280;49839;51.798;10.954;2022-08-11T04:05:05;99904.78;;;17.13;nan
63694;BME280;49839;51.798;10.954;2022-08-11T04:11:03;99900.81;;;17.44;nan
63694;BME280;49839;51.798;10.954;2022-08-11T04:14:00;99904.09;;;17.60;nan
63694;BME280;49839;51.798;10.954;2022-08-11T04:16:52;99919.78;;;17.78;nan
63694;BME280;49839;51.798;10.954;2022-08-11T04:19:48;99898.81;;;17.97;nan
63694;BME280;49839;51.798;10.954;2022-08-11T04:22:35;99906.22;;;18.18;nan
63694;BME280;49839;51.798;10.954;2022-08-11T04:25:28;99901.38;;;18.47;nan
63694;BME280;49839;51.798;10.954;2022-08-11T04:28:25;99910.22;;;18.71;nan
63694;BME280;49839;51.798;10.954;2022-08-11T04:31:23;99904.84;;;18.95;nan
63694;BME280;49839;51.798;10.954;2022-08-11T04:34:34;99905.63;;;19.19;nan
63694;BME280;49839;51.798;10.954;2022-08-11T04:37:15;99896.41;;;19.46;nan
63694;BME280;49839;51.798;10.954;2022-08-11T04:40:17;99911.25;;;19.84;nan
63694;BME280;49839;51.798;10.954;2022-08-11T04:43:14;99905.97;;;20.05;nan
63694;BME280;49839;51.798;10.954;2022-08-11T04:46:03;99907.81;;;20.36;nan
63694;BME280;49839;51.798;10.954;2022-08-11T04:49:07;99907.03;;;20.57;nan
63694;BME280;49839;51.798;10.954;2022-08-11T04:52:12;99903.91;;;20.51;nan
63694;BME280;49839;51.798;10.954;2022-08-11T04:55:25;99902.13;;;20.29;nan
63694;BME280;49839;51.798;10.954;2022-08-11T04:58:19;99897.78;;;20.17;nan
63694;BME280;49839;51.798;10.954;2022-08-11T05:01:18;99900.13;;;20.11;nan
63694;BME280;49839;51.798;10.954;2022-08-11T05:10:28;99894.78;;;20.11;nan
63694;BME280;49839;51.798;10.954;2022-08-11T05:13:09;99891.25;;;20.10;nan
63694;BME280;49839;51.798;10.954;2022-08-11T05:15:53;99887.59;;;20.11;nan
63694;BME280;49839;51.798;10.954;2022-08-11T05:18:49;99893.66;;;20.13;nan
63694;BME280;49839;51.798;10.954;2022-08-11T05:21:41;99888.44;;;20.12;nan
63694;BME280;49839;51.798;10.954;2022-08-11T05:24:34;99888.44;;;20.12;nan
63694;BME280;49839;51.798;10.954;2022-08-11T05:27:29;99891.94;;;20.23;nan
63694;BME280;49839;51.798;10.954;2022-08-11T05:30:14;99885.06;;;20.42;nan
63694;BME280;49839;51.798;10.954;2022-08-11T05:33:04;99890.66;;;20.71;nan
63694;BME280;49839;51.798;10.954;2022-08-11T05:35:59;99897.28;;;21.18;nan
63694;BME280;49839;51.798;10.954;2022-08-11T05:38:31;99889.06;;;21.61;nan
63694;BME280;49839;51.798;10.954;2022-08-11T05:41:22;99890.94;;;22.11;nan
63694;BME280;49839;51.798;10.954;2022-08-11T05:44:10;99889.00;;;22.61;nan
63694;BME280;49839;51.798;10.954;2022-08-11T05:47:02;99891.78;;;23.08;nan
63694;BME280;49839;51.798;10.954;2022-08-11T05:49:48;99891.03;;;23.63;nan
63694;BME280;49839;51.798;10.954;2022-08-11T05:52:35;99891.78;;;24.10;nan
63694;BME280;49839;51.798;10.954;2022-08-11T05:55:22;99898.91;;;24.65;nan
63694;BME280;49839;51.798;10.954;2022-08-11T05:58:24;99889.97;;;25.26;nan
63694;BME280;49839;51.798;10.954;2022-08-11T06:00:53;99888.28;;;25.59;nan
63694;BME280;49839;51.798;10.954;2022-08-11T06:03:25;99887.13;;;26.04;nan
63694;BME280;49839;51.798;10.954;2022-08-11T06:05:55;99891.06;;;26.34;nan
63694;BME280;49839;51.798;10.954;2022-08-11T06:08:27;99887.91;;;26.63;nan
63694;BME280;49839;51.798;10.954;2022-08-11T06:10:59;99889.59;;;26.96;nan
63694;BME280;49839;51.798;10.954;2022-08-11T06:13:28;99892.13;;;27.14;nan
63694;BME280;49839;51.798;10.954;2022-08-11T06:15:58;99890.69;;;27.43;nan
63694;BME280;49839;51.798;10.954;2022-08-11T06:18:32;99895.56;;;27.72;nan
63694;BME280;49839;51.798;10.954;2022-08-11T06:21:00;99896.72;;;27.77;nan
63694;BME280;49839;51.798;10.954;2022-08-11T06:23:30;99892.88;;;28.03;nan
63694;BME280;49839;51.798;10.954;2022-08-11T06:26:07;99892.22;;;28.32;nan
63694;BME280;49839;51.798;10.954;2022-08-11T06:28:43;99891.53;;;28.53;nan
63694;BME280;49839;51.798;10.954;2022-08-11T06:31:17;99899.97;;;28.58;nan
63694;BME280;49839;51.798;10.954;2022-08-11T06:33:54;99894.56;;;28.81;nan
63694;BME280;49839;51.798;10.954;2022-08-11T06:36:30;99902.50;;;29.05;nan
63694;BME280;49839;51.798;10.954;2022-08-11T06:39:11;99897.09;;;29.35;nan
63694;BME280;49839;51.798;10.954;2022-08-11T06:41:44;99907.44;;;29.54;nan
63694;BME280;49839;51.798;10.954;2022-08-11T06:44:16;99901.31;;;29.82;nan
63694;BME280;49839;51.798;10.954;2022-08-11T06:46:51;99900.22;;;29.91;nan
63694;BME280;49839;51.798;10.954;2022-08-11T06:49:27;99902.63;;;30.15;nan
63694;BME280;49839;51.798;10.954;2022-08-11T06:52:17;99900.28;;;30.12;nan
63694;BME280;49839;51.798;10.954;2022-08-11T06:55:05;99899.94;;;30.58;nan
63694;BME280;49839;51.798;10.954;2022-08-11T06:57:38;99891.59;;;30.60;nan
63694;BME280;49839;51.798;10.954;2022-08-11T07:00:26;99899.25;;;30.71;nan
63694;BME280;49839;51.798;10.954;2022-08-11T07:03:05;99900.19;;;30.85;nan
63694;BME280;49839;51.798;10.954;2022-08-11T07:05:40;99897.84;;;31.03;nan
63694;BME280;49839;51.798;10.954;2022-08-11T07:08:29;99897.44;;;31.27;nan
63694;BME280;49839;51.798;10.954;2022-08-11T07:11:37;99894.56;;;31.14;nan
63694;BME280;49839;51.798;10.954;2022-08-11T07:14:29;99904.63;;;31.42;nan
63694;BME280;49839;51.798;10.954;2022-08-11T07:17:18;99903.13;;;31.33;nan
63694;BME280;49839;51.798;10.954;2022-08-11T07:19:53;99900.47;;;31.18;nan
63694;BME280;49839;51.798;10.954;2022-08-11T07:22:40;99902.31;;;31.39;nan
63694;BME280;49839;51.798;10.954;2022-08-11T07:25:27;99899.66;;;31.87;nan
63694;BME280;49839;51.798;10.954;2022-08-11T07:28:16;99900.38;;;31.67;nan
63694;BME280;49839;51.798;10.954;2022-08-11T07:31:07;99887.56;;;31.96;nan
63694;BME280;49839;51.798;10.954;2022-08-11T07:33:43;99891.31;;;31.88;nan
63694;BME280;49839;51.798;10.954;2022-08-11T07:36:36;99887.09;;;31.86;nan
63694;BME280;49839;51.798;10.954;2022-08-11T07:39:07;99897.19;;;31.57;nan
63694;BME280;49839;51.798;10.954;2022-08-11T07:41:37;99889.59;;;31.87;nan
63694;BME280;49839;51.798;10.954;2022-08-11T07:44:05;99892.25;;;32.15;nan
63694;BME280;49839;51.798;10.954;2022-08-11T07:46:39;99881.84;;;32.45;nan
63694;BME280;49839;51.798;10.954;2022-08-11T07:49:28;99883.56;;;32.66;nan
63694;BME280;49839;51.798;10.954;2022-08-11T07:52:17;99885.44;;;32.79;nan
63694;BME280;49839;51.798;10.954;2022-08-11T07:55:00;99886.31;;;32.93;nan
63694;BME280;49839;51.798;10.954;2022-08-11T07:57:30;99893.66;;;33.19;nan
63694;BME280;49839;51.798;10.954;2022-08-11T08:00:37;99894.81;;;33.69;nan
63694;BME280;49839;51.798;10.954;2022-08-11T08:03:24;99895.41;;;33.78;nan
63694;BME280;49839;51.798;10.954;2022-08-11T08:06:19;99893.47;;;33.98;nan
63694;BME280;49839;51.798;10.954;2022-08-11T08:09:07;99897.28;;;33.84;nan
63694;BME280;49839;51.798;10.954;2022-08-11T08:11:53;99896.84;;;33.93;nan
63694;BME280;49839;51.798;10.954;2022-08-11T08:14:39;99894.34;;;33.92;nan
63694;BME280;49839;51.798;10.954;2022-08-11T08:17:24;99897.94;;;33.79;nan
63694;BME280;49839;51.798;10.954;2022-08-11T08:20:12;99902.63;;;34.17;nan
63694;BME280;49839;51.798;10.954;2022-08-11T08:22:41;99896.06;;;34.63;nan
63694;BME280;49839;51.798;10.954;2022-08-11T08:25:15;99887.50;;;34.78;nan
63694;BME280;49839;51.798;10.954;2022-08-11T08:27:43;99889.50;;;34.95;nan
63694;BME280;49839;51.798;10.954;2022-08-11T08:30:12;99891.22;;;34.90;nan
63694;BME280;49839;51.798;10.954;2022-08-11T08:32:58;99889.06;;;34.98;nan
63694;BME280;49839;51.798;10.954;2022-08-11T08:35:26;99892.63;;;34.74;nan
63694;BME280;49839;51.798;10.954;2022-08-11T08:37:58;99883.59;;;34.98;nan
63694;BME280;49839;51.798;10.954;2022-08-11T08:40:27;99885.09;;;34.94;nan
63694;BME280;49839;51.798;10.954;2022-08-11T08:43:01;99882.88;;;34.53;nan
63694;BME280;49839;51.798;10.954;2022-08-11T08:45:33;99881.84;;;34.79;nan
63694;BME280;49839;51.798;10.954;2022-08-11T08:48:07;99875.16;;;35.00;nan
63694;BME280;49839;51.798;10.954;2022-08-11T08:50:42;99873.53;;;34.92;nan
63694;BME280;49839;51.798;10.954;2022-08-11T08:53:32;99888.44;;;34.96;nan
63694;BME280;49839;51.798;10.954;2022-08-11T08:56:03;99879.91;;;34.55;nan
63694;BME280;49839;51.798;10.954;2022-08-11T08:58:34;99874.44;;;34.55;nan
63694;BME280;49839;51.798;10.954;2022-08-11T09:01:03;99870.19;;;34.84;nan
63694;BME280;49839;51.798;10.954;2022-08-11T09:03:35;99874.94;;;34.70;nan
63694;BME280;49839;51.798;10.954;2022-08-11T09:06:23;99870.09;;;35.22;nan
63694;BME280;49839;51.798;10.954;2022-08-11T09:08:51;99871.81;;;35.60;nan
63694;BME280;49839;51.798;10.954;2022-08-11T09:11:22;99863.78;;;35.40;nan
63694;BME280;49839;51.798;10.954;2022-08-11T09:14:08;99868.00;;;35.79;nan
63694;BME280;49839;51.798;10.954;2022-08-11T09:16:40;99861.25;;;36.12;nan
63694;BME280;49839;51.798;10.954;2022-08-11T09:19:12;99864.72;;;35.89;nan
63694;BME280;49839;51.798;10.954;2022-08-11T09:21:43;99871.53;;;35.49;nan
63694;BME280;49839;51.798;10.954;2022-08-11T09:24:33;99872.63;;;35.42;nan
63694;BME280;49839;51.798;10.954;2022-08-11T09:27:22;99875.03;;;35.57;nan
63694;BME280;49839;51.798;10.954;2022-08-11T09:29:50;99873.88;;;35.21;nan
63694;BME280;49839;51.798;10.954;2022-08-11T09:32:19;99865.97;;;34.88;nan
63694;BME280;49839;51.798;10.954;2022-08-11T09:34:48;99863.47;;;35.11;nan
63694;BME280;49839;51.798;10.954;2022-08-11T09:37:20;99865.69;;;34.96;nan
63694;BME280;49839;51.798;10.954;2022-08-11T09:40:21;99856.91;;;35.12;nan
63694;BME280;49839;51.798;10.954;2022-08-11T09:43:02;99851.56;;;35.61;nan
63694;BME280;49839;51.798;10.954;2022-08-11T09:45:51;99846.69;;;36.11;nan
63694;BME280;49839;51.798;10.954;2022-08-11T09:48:21;99847.28;;;35.83;nan
63694;BME280;49839;51.798;10.954;2022-08-11T09:50:50;99847.47;;;35.51;nan
63694;BME280;49839;51.798;10.954;2022-08-11T09:53:19;99842.47;;;35.78;nan
63694;BME280;49839;51.798;10.954;2022-08-11T09:56:02;99843.78;;;35.76;nan
63694;BME280;49839;51.798;10.954;2022-08-11T09:58:52;99836.16;;;35.41;nan
63694;BME280;49839;51.798;10.954;2022-08-11T10:01:19;99833.66;;;35.58;nan
63694;BME280;49839;51.798;10.954;2022-08-11T10:03:59;99842.88;;;35.64;nan
63694;BME280;49839;51.798;10.954;2022-08-11T10:06:28;99837.22;;;35.40;nan
63694;BME280;49839;51.798;10.954;2022-08-11T10:09:20;99836.59;;;35.20;nan
63694;BME280;49839;51.798;10.954;2022-08-11T10:11:52;99822.59;;;35.28;nan
63694;BME280;49839;51.798;10.954;2022-08-11T10:14:26;99828.91;;;34.92;nan
63694;BME280;49839;51.798;10.954;2022-08-11T10:17:12;99821.66;;;34.72;nan
63694;BME280;49839;51.798;10.954;2022-08-11T10:19:42;99824.00;;;34.44;nan
63694;BME280;49839;51.798;10.954;2022-08-11T10:22:28;99819.97;;;34.15;nan
63694;BME280;49839;51.798;10.954;2022-08-11T10:25:14;99815.13;;;34.98;nan
63694;BME280;49839;51.798;10.954;2022-08-11T10:28:02;99824.72;;;35.08;nan
63694;BME280;49839;51.798;10.954;2022-08-11T10:30:46;99820.31;;;35.07;nan
63694;BME280;49839;51.798;10.954;2022-08-11T10:33:40;99811.97;;;35.38;nan
63694;BME280;49839;51.798;10.954;2022-08-11T10:36:31;99815.28;;;35.40;nan
63694;BME280;49839;51.798;10.954;2022-08-11T10:39:01;99811.06;;;35.63;nan
63694;BME280;49839;51.798;10.954;2022-08-11T10:41:30;99797.91;;;35.83;nan
63694;BME280;49839;51.798;10.954;2022-08-11T10:44:36;99794.91;;;35.54;nan
63694;BME280;49839;51.798;10.954;2022-08-11T10:47:06;99796.13;;;35.22;nan
63694;BME280;49839;51.798;10.954;2022-08-11T10:49:53;99787.75;;;34.73;nan
63694;BME280;49839;51.798;10.954;2022-08-11T10:52:35;99777.72;;;34.92;nan
63694;BME280;49839;51.798;10.954;2022-08-11T10:55:22;99788.28;;;34.82;nan
63694;BME280;49839;51.798;10.954;2022-08-11T10:58:07;99795.38;;;34.46;nan
63694;BME280;49839;51.798;10.954;2022-08-11T11:00:54;99779.56;;;34.48;nan
63694;BME280;49839;51.798;10.954;2022-08-11T11:03:27;99791.75;;;34.21;nan
63694;BME280;49839;51.798;10.954;2022-08-11T11:06:02;99787.44;;;34.00;nan
63694;BME280;49839;51.798;10.954;2022-08-11T11:08:56;99781.19;;;33.86;nan
63694;BME280;49839;51.798;10.954;2022-08-11T11:11:36;99770.88;;;33.50;nan
63694;BME280;49839;51.798;10.954;2022-08-11T11:14:26;99774.56;;;33.18;nan
63694;BME280;49839;51.798;10.954;2022-08-11T11:17:24;99773.75;;;32.91;nan
63694;BME280;49839;51.798;10.954;2022-08-11T11:20:13;99773.34;;;32.74;nan
63694;BME280;49839;51.798;10.954;2022-08-11T11:23:04;99766.84;;;32.75;nan
63694;BME280;49839;51.798;10.954;2022-08-11T11:25:47;99765.78;;;32.69;nan
63694;BME280;49839;51.798;10.954;2022-08-11T11:28:43;99766.63;;;32.70;nan
63694;BME280;49839;51.798;10.954;2022-08-11T11:31:26;99760.53;;;32.74;nan
63694;BME280;49839;51.798;10.954;2022-08-11T11:34:11;99759.06;;;32.85;nan
63694;BME280;49839;51.798;10.954;2022-08-11T11:36:45;99752.78;;;32.51;nan
63694;BME280;49839;51.798;10.954;2022-08-11T11:39:16;99756.56;;;32.44;nan
63694;BME280;49839;51.798;10.954;2022-08-11T11:41:45;99756.16;;;32.47;nan
63694;BME280;49839;51.798;10.954;2022-08-11T11:44:14;99760.09;;;32.04;nan
63694;BME280;49839;51.798;10.954;2022-08-11T11:46:43;99752.72;;;31.92;nan
63694;BME280;49839;51.798;10.954;2022-08-11T11:49:14;99759.56;;;31.74;nan
63694;BME280;49839;51.798;10.954;2022-08-11T11:51:45;99754.38;;;31.79;nan
63694;BME280;49839;51.798;10.954;2022-08-11T11:54:16;99742.44;;;31.87;nan
63694;BME280;49839;51.798;10.954;2022-08-11T11:56:44;99746.00;;;31.81;nan
63694;BME280;49839;51.798;10.954;2022-08-11T11:59:13;99734.22;;;31.74;nan
63694;BME280;49839;51.798;10.954;2022-08-11T12:01:59;99744.47;;;31.65;nan
63694;BME280;49839;51.798;10.954;2022-08-11T12:04:37;99743.16;;;31.54;nan
63694;BME280;49839;51.798;10.954;2022-08-11T12:07:09;99735.22;;;31.12;nan
63694;BME280;49839;51.798;10.954;2022-08-11T12:09:56;99729.25;;;30.60;nan
63694;BME280;49839;51.798;10.954;2022-08-11T12:12:24;99733.78;;;30.53;nan
63694;BME280;49839;51.798;10.954;2022-08-11T12:15:10;99720.75;;;30.70;nan
63694;BME280;49839;51.798;10.954;2022-08-11T12:17:39;99724.59;;;30.82;nan
63694;BME280;49839;51.798;10.954;2022-08-11T12:20:07;99727.34;;;30.89;nan
63694;BME280;49839;51.798;10.954;2022-08-11T12:22:57;99727.78;;;30.64;nan
63694;BME280;49839;51.798;10.954;2022-08-11T12:25:43;99715.44;;;30.62;nan
63694;BME280;49839;51.798;10.954;2022-08-11T12:28:49;99712.88;;;30.82;nan
63694;BME280;49839;51.798;10.954;2022-08-11T12:31:17;99698.47;;;30.88;nan
63694;BME280;49839;51.798;10.954;2022-08-11T12:33:48;99697.78;;;30.51;nan
63694;BME280;49839;51.798;10.954;2022-08-11T12:36:16;99702.38;;;30.23;nan
63694;BME280;49839;51.798;10.954;2022-08-11T12:38:49;99699.81;;;30.14;nan
63694;BME280;49839;51.798;10.954;2022-08-11T12:41:18;99705.53;;;30.26;nan
63694;BME280;49839;51.798;10.954;2022-08-11T12:44:17;99699.41;;;30.17;nan
63694;BME280;49839;51.798;10.954;2022-08-11T12:47:02;99689.88;;;30.28;nan
63694;BME280;49839;51.798;10.954;2022-08-11T12:49:31;99689.94;;;30.35;nan
63694;BME280;49839;51.798;10.954;2022-08-11T12:52:22;99688.69;;;30.37;nan
63694;BME280;49839;51.798;10.954;2022-08-11T12:54:59;99693.78;;;30.19;nan
63694;BME280;49839;51.798;10.954;2022-08-11T12:57:31;99678.25;;;30.13;nan
63694;BME280;49839;51.798;10.954;2022-08-11T13:00:18;99672.47;;;30.01;nan
63694;BME280;49839;51.798;10.954;2022-08-11T13:03:06;99668.53;;;30.04;nan
63694;BME280;49839;51.798;10.954;2022-08-11T13:05:53;99667.22;;;30.14;nan
63694;BME280;49839;51.798;10.954;2022-08-11T13:08:23;99663.78;;;30.34;nan
63694;BME280;49839;51.798;10.954;2022-08-11T13:10:54;99665.00;;;30.31;nan
63694;BME280;49839;51.798;10.954;2022-08-11T13:13:42;99660.75;;;30.50;nan
63694;BME280;49839;51.798;10.954;2022-08-11T13:16:22;99663.13;;;30.60;nan
63694;BME280;49839;51.798;10.954;2022-08-11T13:18:51;99662.97;;;30.40;nan
63694;BME280;49839;51.798;10.954;2022-08-11T13:21:20;99670.50;;;30.38;nan
63694;BME280;49839;51.798;10.954;2022-08-11T13:23:50;99653.47;;;30.23;nan
63694;BME280;49839;51.798;10.954;2022-08-11T13:26:28;99646.34;;;30.22;nan
63694;BME280;49839;51.798;10.954;2022-08-11T13:29:09;99640.72;;;30.23;nan
63694;BME280;49839;51.798;10.954;2022-08-11T13:31:38;99642.47;;;30.37;nan
63694;BME280;49839;51.798;10.954;2022-08-11T13:34:08;99641.97;;;30.55;nan
63694;BME280;49839;51.798;10.954;2022-08-11T13:36:36;99636.19;;;30.37;nan
63694;BME280;49839;51.798;10.954;2022-08-11T13:39:05;99641.88;;;30.42;nan
63694;BME280;49839;51.798;10.954;2022-08-11T13:41:34;99640.00;;;30.42;nan
63694;BME280;49839;51.798;10.954;2022-08-11T13:44:10;99650.09;;;30.48;nan
63694;BME280;49839;51.798;10.954;2022-08-11T13:46:38;99643.56;;;30.43;nan
63694;BME280;49839;51.798;10.954;2022-08-11T13:49:08;99645.81;;;30.39;nan
63694;BME280;49839;51.798;10.954;2022-08-11T13:51:37;99636.59;;;30.34;nan
63694;BME280;49839;51.798;10.954;2022-08-11T13:54:08;99634.22;;;30.24;nan
63694;BME280;49839;51.798;10.954;2022-08-11T13:56:40;99632.97;;;30.27;nan
63694;BME280;49839;51.798;10.954;2022-08-11T13:59:09;99619.81;;;30.24;nan
63694;BME280;49839;51.798;10.954;2022-08-11T14:01:40;99622.00;;;30.13;nan
63694;BME280;49839;51.798;10.954;2022-08-11T14:04:31;99630.19;;;29.92;nan
63694;BME280;49839;51.798;10.954;2022-08-11T14:07:05;99620.38;;;29.91;nan
63694;BME280;49839;51.798;10.954;2022-08-11T14:09:36;99620.16;;;29.92;nan
63694;BME280;49839;51.798;10.954;2022-08-11T14:12:08;99606.63;;;29.99;nan
63694;BME280;49839;51.798;10.954;2022-08-11T14:14:59;99617.16;;;30.09;nan
63694;BME280;49839;51.798;10.954;2022-08-11T14:17:35;99613.63;;;29.87;nan
63694;BME280;49839;51.798;10.954;2022-08-11T14:20:15;99613.47;;;29.88;nan
63694;BME280;49839;51.798;10.954;2022-08-11T14:23:04;99600.56;;;29.97;nan
63694;BME280;49839;51.798;10.954;2022-08-11T14:25:31;99607.91;;;30.03;nan
63694;BME280;49839;51.798;10.954;2022-08-11T14:28:20;99591.91;;;29.87;nan
63694;BME280;49839;51.798;10.954;2022-08-11T14:30:58;99605.22;;;29.82;nan
63694;BME280;49839;51.798;10.954;2022-08-11T14:33:27;99604.00;;;29.84;nan
63694;BME280;49839;51.798;10.954;2022-08-11T14:36:17;99595.06;;;29.90;nan
63694;BME280;49839;51.798;10.954;2022-08-11T14:38:46;99599.94;;;29.95;nan
63694;BME280;49839;51.798;10.954;2022-08-11T14:41:15;99593.78;;;29.86;nan
63694;BME280;49839;51.798;10.954;2022-08-11T14:44:04;99592.63;;;29.96;nan
63694;BME280;49839;51.798;10.954;2022-08-11T14:46:50;99597.84;;;29.97;nan
63694;BME280;49839;51.798;10.954;2022-08-11T14:49:50;99591.09;;;29.93;nan